sensor_id;sensor_type;location;lat;lon;timestamp;P1;durP1;ratioP1;P2;durP2;ratioP2
9874;SDS011;4976;46.786;7.632;2022-08-07T15:39:01;7.15;;;6.55;;
9874;SDS011;4976;46.786;7.632;2022-08-07T15:59:34;6.70;;;6.10;;
9874;SDS011;4976;46.786;7.632;2022-08-07T16:13:44;6.82;;;6.20;;
9874;SDS011;4976;46.786;7.632;2022-08-07T16:16:51;7.35;;;6.70;;
9874;SDS011;4976;46.786;7.632;2022-08-07T16:19:51;7.22;;;6.57;;
9874;SDS011;4976;46.786;7.632;2022-08-07T16:25:36;6.85;;;6.15;;
9874;SDS011;4976;46.786;7.632;2022-08-07T16:28:59;6.65;;;6.05;;
9874;SDS011;4976;46.786;7.632;2022-08-07T16:31:55;7.13;;;6.50;;
9874;SDS011;4976;46.786;7.632;2022-08-07T16:36:33;6.43;;;5.82;;
9874;SDS011;4976;46.786;7.632;2022-08-07T16:38:04;6.90;;;6.32;;
9874;SDS011;4976;46.786;7.632;2022-08-07T16:41:17;7.15;;;6.55;;
9874;SDS011;4976;46.786;7.632;2022-08-07T16:44:00;8.05;;;6.90;;
9874;SDS011;4976;46.786;7.632;2022-08-07T16:47:03;6.82;;;6.13;;
9874;SDS011;4976;46.786;7.632;2022-08-07T16:52:45;6.53;;;6.03;;
9874;SDS011;4976;46.786;7.632;2022-08-07T16:55:29;5.97;;;5.47;;
9874;SDS011;4976;46.786;7.632;2022-08-07T16:58:02;6.80;;;6.20;;
9874;SDS011;4976;46.786;7.632;2022-08-07T17:00:43;6.15;;;5.63;;
9874;SDS011;4976;46.786;7.632;2022-08-07T17:03:26;6.60;;;6.00;;
9874;SDS011;4976;46.786;7.632;2022-08-07T17:06:08;6.90;;;6.30;;
9874;SDS011;4976;46.786;7.632;2022-08-07T17:08:54;6.38;;;5.78;;
9874;SDS011;4976;46.786;7.632;2022-08-07T17:11:27;6.22;;;5.70;;
9874;SDS011;4976;46.786;7.632;2022-08-07T17:14:01;6.13;;;5.55;;
9874;SDS011;4976;46.786;7.632;2022-08-07T17:16:41;6.40;;;5.80;;
9874;SDS011;4976;46.786;7.632;2022-08-07T17:19:16;6.15;;;5.65;;
9874;SDS011;4976;46.786;7.632;2022-08-07T17:21:59;6.13;;;5.43;;
9874;SDS011;4976;46.786;7.632;2022-08-07T17:24:54;6.38;;;5.78;;
9874;SDS011;4976;46.786;7.632;2022-08-07T17:31:04;5.47;;;5.00;;
9874;SDS011;4976;46.786;7.632;2022-08-07T17:33:46;6.10;;;5.50;;
9874;SDS011;4976;46.786;7.632;2022-08-07T17:36:23;5.97;;;5.47;;
9874;SDS011;4976;46.786;7.632;2022-08-07T17:39:05;6.15;;;5.65;;
9874;SDS011;4976;46.786;7.632;2022-08-07T17:41:41;5.88;;;5.38;;
9874;SDS011;4976;46.786;7.632;2022-08-07T17:44:35;5.53;;;5.13;;
9874;SDS011;4976;46.786;7.632;2022-08-07T17:47:16;5.90;;;5.40;;
9874;SDS011;4976;46.786;7.632;2022-08-07T17:49:49;5.53;;;5.13;;
9874;SDS011;4976;46.786;7.632;2022-08-07T17:52:26;5.45;;;4.95;;
9874;SDS011;4976;46.786;7.632;2022-08-07T17:55:03;5.60;;;5.10;;
9874;SDS011;4976;46.786;7.632;2022-08-07T17:57:37;5.20;;;4.70;;
9874;SDS011;4976;46.786;7.632;2022-08-07T18:00:16;5.53;;;5.03;;
9874;SDS011;4976;46.786;7.632;2022-08-07T18:02:45;5.07;;;4.60;;
9874;SDS011;4976;46.786;7.632;2022-08-07T18:05:22;5.68;;;5.18;;
9874;SDS011;4976;46.786;7.632;2022-08-07T18:07:59;5.60;;;5.00;;
9874;SDS011;4976;46.786;7.632;2022-08-07T18:10:36;5.07;;;4.63;;
9874;SDS011;4976;46.786;7.632;2022-08-07T18:13:10;4.60;;;4.30;;
9874;SDS011;4976;46.786;7.632;2022-08-07T18:15:50;5.05;;;4.60;;
9874;SDS011;4976;46.786;7.632;2022-08-07T18:18:25;5.22;;;4.70;;
9874;SDS011;4976;46.786;7.632;2022-08-07T18:21:08;5.07;;;4.68;;
9874;SDS011;4976;46.786;7.632;2022-08-07T18:23:44;5.03;;;4.63;;
9874;SDS011;4976;46.786;7.632;2022-08-07T18:26:23;5.18;;;4.78;;
9874;SDS011;4976;46.786;7.632;2022-08-07T18:29:09;5.15;;;4.65;;
9874;SDS011;4976;46.786;7.632;2022-08-07T18:32:06;5.45;;;4.95;;
9874;SDS011;4976;46.786;7.632;2022-08-07T18:34:47;4.75;;;4.00;;
9874;SDS011;4976;46.786;7.632;2022-08-07T18:37:38;6.30;;;4.30;;
9874;SDS011;4976;46.786;7.632;2022-08-07T18:40:26;4.65;;;4.25;;
9874;SDS011;4976;46.786;7.632;2022-08-07T18:43:04;4.88;;;4.47;;
9874;SDS011;4976;46.786;7.632;2022-08-07T18:45:40;4.90;;;4.40;;
9874;SDS011;4976;46.786;7.632;2022-08-07T18:48:17;4.90;;;4.38;;
9874;SDS011;4976;46.786;7.632;2022-08-07T18:50:56;5.28;;;4.35;;
9874;SDS011;4976;46.786;7.632;2022-08-07T18:53:37;4.50;;;4.20;;
9874;SDS011;4976;46.786;7.632;2022-08-07T18:56:31;5.28;;;4.38;;
9874;SDS011;4976;46.786;7.632;2022-08-07T18:59:05;4.85;;;4.35;;
9874;SDS011;4976;46.786;7.632;2022-08-07T19:01:56;4.68;;;4.28;;
9874;SDS011;4976;46.786;7.632;2022-08-07T19:04:34;4.38;;;3.97;;
9874;SDS011;4976;46.786;7.632;2022-08-07T19:07:15;4.85;;;4.45;;
9874;SDS011;4976;46.786;7.632;2022-08-07T19:09:55;5.47;;;4.75;;
9874;SDS011;4976;46.786;7.632;2022-08-07T19:12:42;5.32;;;4.45;;
9874;SDS011;4976;46.786;7.632;2022-08-07T19:15:19;4.40;;;4.10;;
9874;SDS011;4976;46.786;7.632;2022-08-07T19:17:53;4.97;;;4.57;;
9874;SDS011;4976;46.786;7.632;2022-08-07T19:20:33;4.80;;;4.40;;
9874;SDS011;4976;46.786;7.632;2022-08-07T19:23:12;6.37;;;4.87;;
9874;SDS011;4976;46.786;7.632;2022-08-07T19:25:48;5.23;;;4.73;;
9874;SDS011;4976;46.786;7.632;2022-08-07T19:28:28;6.13;;;5.00;;
9874;SDS011;4976;46.786;7.632;2022-08-07T19:31:09;5.57;;;5.07;;
9874;SDS011;4976;46.786;7.632;2022-08-07T19:33:38;5.07;;;4.63;;
9874;SDS011;4976;46.786;7.632;2022-08-07T19:36:10;5.20;;;4.70;;
9874;SDS011;4976;46.786;7.632;2022-08-07T19:38:39;7.37;;;5.77;;
9874;SDS011;4976;46.786;7.632;2022-08-07T19:41:08;6.20;;;5.60;;
9874;SDS011;4976;46.786;7.632;2022-08-07T19:43:39;6.10;;;5.60;;
9874;SDS011;4976;46.786;7.632;2022-08-07T19:46:13;5.80;;;5.30;;
9874;SDS011;4976;46.786;7.632;2022-08-07T19:48:44;6.27;;;5.67;;
9874;SDS011;4976;46.786;7.632;2022-08-07T19:51:15;6.13;;;5.57;;
9874;SDS011;4976;46.786;7.632;2022-08-07T19:53:47;5.60;;;5.10;;
9874;SDS011;4976;46.786;7.632;2022-08-07T19:56:15;6.13;;;5.63;;
9874;SDS011;4976;46.786;7.632;2022-08-07T19:58:46;6.37;;;5.83;;
9874;SDS011;4976;46.786;7.632;2022-08-07T20:01:16;5.57;;;5.00;;
9874;SDS011;4976;46.786;7.632;2022-08-07T20:03:46;7.97;;;5.57;;
9874;SDS011;4976;46.786;7.632;2022-08-07T20:06:14;6.53;;;5.83;;
9874;SDS011;4976;46.786;7.632;2022-08-07T20:08:45;5.80;;;5.30;;
9874;SDS011;4976;46.786;7.632;2022-08-07T20:11:16;5.47;;;5.00;;
9874;SDS011;4976;46.786;7.632;2022-08-07T20:13:49;5.77;;;5.20;;
9874;SDS011;4976;46.786;7.632;2022-08-07T20:16:19;5.57;;;5.17;;
9874;SDS011;4976;46.786;7.632;2022-08-07T20:18:51;9.40;;;6.13;;
9874;SDS011;4976;46.786;7.632;2022-08-07T20:21:19;6.20;;;5.70;;
9874;SDS011;4976;46.786;7.632;2022-08-07T20:23:49;6.90;;;6.10;;
9874;SDS011;4976;46.786;7.632;2022-08-07T20:26:20;6.60;;;6.00;;
9874;SDS011;4976;46.786;7.632;2022-08-07T20:28:50;6.30;;;5.70;;
9874;SDS011;4976;46.786;7.632;2022-08-07T20:31:20;6.47;;;5.80;;
9874;SDS011;4976;46.786;7.632;2022-08-07T20:33:48;6.33;;;5.80;;
9874;SDS011;4976;46.786;7.632;2022-08-07T20:36:21;6.83;;;6.23;;
9874;SDS011;4976;46.786;7.632;2022-08-07T20:38:50;6.10;;;5.57;;
9874;SDS011;4976;46.786;7.632;2022-08-07T20:41:21;6.27;;;5.67;;
9874;SDS011;4976;46.786;7.632;2022-08-07T20:43:55;6.40;;;5.80;;
9874;SDS011;4976;46.786;7.632;2022-08-07T20:46:26;6.53;;;5.90;;
9874;SDS011;4976;46.786;7.632;2022-08-07T20:48:55;5.87;;;5.37;;
9874;SDS011;4976;46.786;7.632;2022-08-07T20:51:25;6.40;;;5.80;;
9874;SDS011;4976;46.786;7.632;2022-08-07T20:53:53;6.53;;;5.80;;
9874;SDS011;4976;46.786;7.632;2022-08-07T20:56:23;6.70;;;6.10;;
9874;SDS011;4976;46.786;7.632;2022-08-07T20:58:55;5.87;;;5.37;;
9874;SDS011;4976;46.786;7.632;2022-08-07T21:01:26;6.10;;;5.60;;
9874;SDS011;4976;46.786;7.632;2022-08-07T21:03:56;6.77;;;6.17;;
9874;SDS011;4976;46.786;7.632;2022-08-07T21:06:25;8.07;;;6.17;;
9874;SDS011;4976;46.786;7.632;2022-08-07T21:08:55;6.33;;;5.70;;
9874;SDS011;4976;46.786;7.632;2022-08-07T21:11:29;6.23;;;5.67;;
9874;SDS011;4976;46.786;7.632;2022-08-07T21:14:04;6.33;;;5.73;;
9874;SDS011;4976;46.786;7.632;2022-08-07T21:16:34;6.57;;;5.53;;
9874;SDS011;4976;46.786;7.632;2022-08-07T21:19:04;6.57;;;5.93;;
9874;SDS011;4976;46.786;7.632;2022-08-07T21:21:36;7.90;;;6.00;;
9874;SDS011;4976;46.786;7.632;2022-08-07T21:24:09;6.63;;;6.03;;
9874;SDS011;4976;46.786;7.632;2022-08-07T21:26:40;5.57;;;5.07;;
9874;SDS011;4976;46.786;7.632;2022-08-07T21:29:24;5.80;;;5.30;;
9874;SDS011;4976;46.786;7.632;2022-08-07T21:31:56;6.80;;;6.20;;
9874;SDS011;4976;46.786;7.632;2022-08-07T21:34:29;6.30;;;5.70;;
9874;SDS011;4976;46.786;7.632;2022-08-07T21:37:02;6.73;;;5.87;;
9874;SDS011;4976;46.786;7.632;2022-08-07T21:39:34;6.80;;;6.20;;
9874;SDS011;4976;46.786;7.632;2022-08-07T21:42:12;6.37;;;5.87;;
9874;SDS011;4976;46.786;7.632;2022-08-07T21:44:47;5.87;;;5.37;;
9874;SDS011;4976;46.786;7.632;2022-08-07T21:47:21;5.90;;;5.40;;
9874;SDS011;4976;46.786;7.632;2022-08-07T21:49:57;6.17;;;5.57;;
9874;SDS011;4976;46.786;7.632;2022-08-07T21:52:30;6.17;;;5.60;;
9874;SDS011;4976;46.786;7.632;2022-08-07T21:55:05;5.80;;;5.20;;
9874;SDS011;4976;46.786;7.632;2022-08-07T21:57:42;5.90;;;5.40;;
